Latest Weather Observations for Edinburgh

IDS60801

Issued at 9:31 pm CST Sunday 30 August 2015 (issued every 30 minutes, with the page automatically refreshed every 10 minutes)

About weather observations | Map of weather stations | Latest weather observations for SA | Other Formats
Station Details ID: 023083 Name: EDINBURGH RAAF Lat: -34.71 Lon: 138.62 Height: 16.54 m
Data from the previous 72 hours. | See also: Recent months at Edinburgh
Date/Time
CST
Temp
°C
App
Temp
°C
Dew
Point
Rel
Hum
%
Delta-T
°C
Wind Press
QNH
hPa
Press
MSL
hPa
Rain
since 9 am
mm
Dir
 
Spd
km/h
Gust
km/h
Spd
kts
Gust
kts
30/09:30pm 5.2 2.2 2.0 80 1.3 NNE 7 7 4 4 1023.2 1023.2 0.0
30/09:00pm 9.0 6.3 3.6 69 2.3 ESE 7 9 4 5 1023.2 1023.2 0.0
30/08:30pm 7.8 5.8 2.3 68 2.3 ESE 2 6 1 3 1023.3 1023.3 0.0
30/08:00pm 11.0 7.8 3.3 59 3.4 ESE 9 11 5 6 1023.0 1023.0 0.0
30/07:30pm 11.2 8.4 3.3 58 3.4 SE 7 9 4 5 1023.1 1023.1 0.0
30/07:00pm 11.8 9.1 3.6 57 3.6 SSE 7 9 4 5 1023.1 1023.1 0.0
30/06:30pm 12.4 9.7 3.9 56 3.8 SSE 7 11 4 6 1023.1 1023.1 0.0
30/06:00pm 12.7 9.7 4.2 56 3.8 SSE 9 11 5 6 1022.9 1022.9 0.0
30/05:30pm 13.5 9.9 5.2 57 3.9 SSW 13 17 7 9 1022.8 1022.8 0.0
30/05:00pm 14.3 9.5 4.6 52 4.5 SW 19 22 10 12 1022.6 1022.6 0.0
30/04:30pm 15.2 10.6 5.7 53 4.5 WSW 19 22 10 12 1022.4 1022.4 0.0
30/04:00pm 16.0 12.8 3.1 42 5.9 NE 9 15 5 8 1022.5 1022.5 0.0
30/03:30pm 16.3 13.2 3.4 42 5.9 NNE 9 17 5 9 1022.7 1022.7 0.0
30/03:00pm 16.2 12.3 3.3 42 5.9 NE 13 20 7 11 1022.9 1022.9 0.0
30/02:30pm 16.2 13.1 3.6 43 5.8 NE 9 15 5 8 1023.2 1023.2 0.0
30/02:00pm 15.9 12.2 2.3 40 6.1 NE 11 17 6 9 1023.5 1023.5 0.0
30/01:30pm 15.9 12.8 3.4 43 5.7 N 9 17 5 9 1023.9 1023.9 0.0
30/01:00pm 15.7 12.2 3.5 44 5.6 ENE 11 15 6 8 1024.4 1024.4 0.0
30/12:30pm 15.2 11.5 2.1 41 5.8 N 11 20 6 11 1024.9 1024.9 0.0
30/12:00pm 15.0 10.9 2.5 43 5.5 NE 13 20 7 11 1025.3 1025.3 0.0
30/11:30am 14.7 9.5 2.3 43 5.5 NNE 19 24 10 13 1025.7 1025.7 0.0
30/11:00am 14.7 9.4 2.9 45 5.3 NNE 20 24 11 13 1026.0 1026.0 0.0
30/10:30am 13.9 8.7 2.5 46 5.0 NE 19 28 10 15 1026.1 1026.1 0.0
30/10:00am 13.5 8.4 3.3 50 4.6 NE 19 24 10 13 1026.3 1026.3 0.0
30/09:30am 12.4 7.0 2.6 51 4.2 NE 20 24 11 13 1026.6 1026.6 0.0
30/09:00am 12.0 8.9 3.8 57 3.6 ENE 9 17 5 9 1026.8 1026.8 0.0
30/08:30am 10.1 6.1 2.7 60 3.1 NE 13 15 7 8 1026.9 1026.9 0.0
30/08:00am 8.4 4.8 2.8 68 2.4 NNE 11 13 6 7 1026.9 1026.9 0.0
30/07:30am 6.8 3.2 3.1 77 1.5 NE 11 13 6 7 1026.7 1026.7 0.0
30/07:00am 4.1 0.6 1.3 82 1.1 NE 9 11 5 6 1026.6 1026.6 0.0
30/06:30am 4.0 0.4 0.5 78 1.3 NE 9 11 5 6 1026.3 1026.3 0.0
30/06:00am 5.6 1.4 1.5 75 1.6 NE 13 17 7 9 1026.0 1026.0 0.0
30/05:30am 7.6 2.7 1.7 66 2.4 E 17 24 9 13 1025.7 1025.7 0.0
30/05:00am 7.9 2.6 2.0 66 2.4 E 19 26 10 14 1025.6 1025.6 0.0
30/04:30am 7.9 2.6 1.7 65 2.5 E 19 26 10 14 1025.5 1025.5 0.0
30/04:00am 8.2 2.9 1.6 63 2.7 E 19 24 10 13 1025.6 1025.6 0.0
30/03:30am 8.6 3.6 1.3 60 3.0 E 17 24 9 13 1025.9 1025.9 0.0
30/03:00am 9.0 4.3 1.2 58 3.2 E 15 24 8 13 1026.3 1026.3 0.0
30/02:30am 9.4 3.9 0.8 55 3.5 E 19 28 10 15 1026.4 1026.4 0.0
30/02:00am 9.3 5.3 0.7 55 3.5 ESE 11 19 6 10 1026.8 1026.8 0.0
30/01:30am 9.1 4.7 0.6 55 3.4 ESE 13 19 7 10 1027.0 1027.0 0.0
30/01:00am 7.7 4.5 0.7 61 2.8 ESE 7 15 4 8 1027.2 1027.2 0.0
30/12:30am 8.6 4.9 0.1 55 3.3 E 9 13 5 7 1027.4 1027.4 0.0
30/12:00am 8.2 4.6 0.9 60 2.9 E 9 15 5 8 1027.1 1027.1 0.0
 
Date/Time
CST
Temp
°C
App
Temp
°C
Dew
Point
Rel
Hum
%
Delta-T
°C
Wind Press
QNH
hPa
Press
MSL
hPa
Rain
since 9 am
mm
Dir
 
Spd
km/h
Gust
km/h
Spd
kts
Gust
kts
29/11:30pm 5.4 2.4 0.8 72 1.8 ENE 6 13 3 7 1027.3 1027.3 0.0
29/11:00pm 6.1 4.0 2.0 75 1.7 SSW 2 9 1 5 1027.5 1027.5 0.0
29/10:30pm 7.8 5.0 2.3 68 2.3 ESE 6 9 3 5 1027.8 1027.8 0.0
29/10:00pm 7.6 5.6 2.5 70 2.1 NE 2 7 1 4 1027.8 1027.8 0.0
29/09:30pm 9.0 5.4 3.0 66 2.5 ESE 11 17 6 9 1027.7 1027.7 0.0
29/09:00pm 9.4 5.9 3.6 67 2.5 ESE 11 19 6 10 1027.6 1027.6 0.0
29/08:30pm 9.4 6.7 3.8 68 2.4 ESE 7 13 4 7 1027.5 1027.5 0.0
29/08:00pm 9.8 7.1 3.8 66 2.6 ESE 7 13 4 7 1027.3 1027.3 0.0
29/07:30pm 10.5 6.7 3.8 63 2.9 ESE 13 20 7 11 1027.2 1027.2 0.0
29/07:00pm 10.8 8.1 3.8 62 3.1 E 7 9 4 5 1027.2 1027.2 0.0
29/06:30pm 11.5 8.0 3.3 57 3.6 ESE 11 15 6 8 1027.0 1027.0 0.0
29/06:00pm 12.0 8.5 3.3 55 3.8 E 11 17 6 9 1026.6 1026.6 0.0
29/05:30pm 12.8 9.0 4.0 55 3.9 ESE 13 20 7 11 1026.5 1026.5 0.0
29/05:00pm 12.9 9.1 3.8 54 4.1 ESE 13 17 7 9 1026.2 1026.2 0.0
29/04:30pm 13.4 9.7 4.3 54 4.1 SE 13 17 7 9 1026.1 1026.1 0.0
29/04:00pm 13.8 11.3 4.7 54 4.2 S 7 11 4 6 1026.1 1026.1 0.0
29/03:30pm 13.8 11.1 3.9 51 4.5 SSE 7 11 4 6 1026.2 1026.2 0.0
29/03:00pm 13.8 10.9 4.7 54 4.2 SSW 9 13 5 7 1026.5 1026.5 0.0
29/02:30pm 13.6 10.9 5.5 58 3.8 S 9 15 5 8 1026.8 1026.8 0.0
29/02:00pm 13.3 10.2 5.7 60 3.6 SSW 11 15 6 8 1026.9 1026.9 0.0
29/01:30pm 13.0 9.2 5.7 61 3.4 SSW 15 22 8 12 1027.0 1027.0 0.0
29/01:00pm 13.8 10.5 4.7 54 4.2 SE 11 17 6 9 1027.2 1027.2 0.0
29/12:30pm 13.5 10.9 4.1 53 4.3 SSE 7 11 4 6 1027.8 1027.8 0.0
29/12:00pm 13.0 9.8 4.9 58 3.7 SSE 11 15 6 8 1028.2 1028.2 0.0
29/11:30am 12.8 9.2 4.8 58 3.7 SE 13 19 7 10 1028.6 1028.6 0.0
29/11:00am 13.6 9.9 6.2 61 3.5 SE 15 20 8 11 1028.7 1028.7 0.0
29/10:30am 12.8 9.4 4.0 55 3.9 ESE 11 17 6 9 1028.8 1028.8 0.0
29/10:00am 12.4 9.1 6.2 66 2.9 ESE 13 19 7 10 1028.9 1028.9 0.0
29/09:30am 12.0 8.9 7.3 73 2.3 SE 13 19 7 10 1028.9 1028.9 0.0
29/09:00am 10.3 9.3 7.5 83 1.3 NNE 2 6 1 3 1028.8 1028.8 0.0
29/08:30am 8.4 7.1 6.2 86 1.0 NNE 2 6 1 3 1028.8 1028.8 0.0
29/08:00am 8.3 7.3 5.8 84 1.1 CALM 0 0 0 0 1028.6 1028.6 0.0
29/07:30am 7.2 5.3 4.9 85 1.0 ENE 4 6 2 3 1028.3 1028.3 0.0
29/07:00am 5.2 3.2 4.2 93 0.4 SSW 4 7 2 4 1028.1 1028.1 0.0
29/06:30am 3.2 0.8 2.0 92 0.5 N 4 7 2 4 1027.7 1027.7 0.0
29/06:00am 2.9 0.8 1.7 92 0.5 NE 2 7 1 4 1027.7 1027.7 0.0
29/05:30am 1.8 -0.1 0.5 91 0.5 CALM 0 0 0 0 1027.5 1027.5 0.0
29/05:00am 3.2 1.5 1.9 91 0.5 CALM 0 0 0 0 1027.5 1027.5 0.0
29/04:30am 3.2 1.5 1.7 90 0.6 CALM 0 0 0 0 1027.5 1027.5 0.0
29/04:00am 2.5 0.7 1.2 91 0.5 CALM 0 0 0 0 1027.6 1027.6 0.0
29/03:30am 2.9 1.1 1.0 87 0.7 CALM 0 0 0 0 1027.7 1027.7 0.0
29/03:00am 4.0 2.4 2.4 89 0.6 CALM 0 0 0 0 1027.9 1027.9 0.0
29/02:30am 3.1 0.2 1.5 89 0.6 N 6 7 3 4 1028.2 1028.2 0.0
29/02:00am 4.2 1.3 2.4 88 0.7 NNE 7 9 4 5 1028.4 1028.4 0.0
29/01:30am 3.8 0.5 2.3 90 0.6 NNE 9 9 5 5 1028.6 1028.6 0.0
29/01:00am 3.9 1.1 1.8 86 0.8 NE 6 9 3 5 1028.7 1028.7 0.0
29/12:30am 4.5 1.8 2.4 86 0.8 SSE 6 9 3 5 1028.6 1028.6 0.0
29/12:00am 4.2 2.6 2.2 87 0.8 CALM 0 6 0 3 1028.5 1028.5 0.0
 
Date/Time
CST
Temp
°C
App
Temp
°C
Dew
Point
Rel
Hum
%
Delta-T
°C
Wind Press
QNH
hPa
Press
MSL
hPa
Rain
since 9 am
mm
Dir
 
Spd
km/h
Gust
km/h
Spd
kts
Gust
kts
28/11:30pm 5.9 4.6 3.9 87 0.8 CALM 0 0 0 0 1028.6 1028.6 0.0
28/11:00pm 6.3 5.0 4.0 85 1.0 CALM 0 0 0 0 1028.7 1028.7 0.0
28/10:30pm 6.3 5.0 4.0 85 1.0 CALM 0 0 0 0 1028.9 1028.9 0.0
28/10:00pm 6.0 4.2 3.2 82 1.2 SSW 2 6 1 3 1029.1 1029.1 0.0
28/09:30pm 6.5 5.0 2.9 78 1.5 CALM 0 0 0 0 1029.0 1029.0 0.0
28/09:00pm 7.7 5.0 3.7 76 1.7 SSW 7 7 4 4 1028.9 1028.9 0.0
28/08:30pm 9.4 6.8 4.0 69 2.3 SSE 7 11 4 6 1028.6 1028.6 0.0
28/08:00pm 9.8 6.9 4.4 69 2.4 SSE 9 11 5 6 1028.2 1028.2 0.0
28/07:30pm 10.4 7.6 5.0 69 2.4 SSE 9 13 5 7 1028.2 1028.2 0.0
28/07:00pm 10.1 7.9 5.5 73 2.1 S 6 7 3 4 1028.0 1028.0 0.0
28/06:30pm 10.5 7.8 5.5 71 2.3 SE 9 13 5 7 1027.7 1027.7 0.0
28/06:00pm 11.6 8.1 5.5 66 2.8 ESE 13 17 7 9 1027.4 1027.4 0.0
28/05:30pm 12.5 9.5 5.9 64 3.1 SSE 11 13 6 7 1027.2 1027.2 0.0
28/05:00pm 12.7 8.7 6.5 66 3.0 SW 17 22 9 12 1027.1 1027.1 0.0
28/04:30pm 12.8 7.4 6.2 64 3.1 SW 24 30 13 16 1027.2 1027.2 0.0
28/04:00pm 13.0 8.5 6.8 66 3.0 SW 20 26 11 14 1027.2 1027.2 0.0
28/03:30pm 13.5 9.4 6.4 62 3.4 SW 17 22 9 12 1027.3 1027.3 0.0
28/03:00pm 13.2 10.0 6.8 65 3.1 WSW 13 17 7 9 1027.6 1027.6 0.0
28/02:30pm 12.4 9.4 7.9 74 2.2 W 13 17 7 9 1027.9 1027.9 0.0
28/02:00pm 12.3 8.5 7.6 73 2.3 WSW 17 19 9 10 1028.1 1028.1 0.0
28/01:30pm 12.2 8.8 7.7 74 2.2 W 15 19 8 10 1028.1 1028.1 0.0
28/01:00pm 12.5 9.9 7.8 73 2.3 W 11 15 6 8 1028.5 1028.5 0.0
28/12:30pm 12.2 10.0 7.9 75 2.1 W 9 13 5 7 1028.9 1028.9 0.0
28/12:00pm 11.9 9.4 8.0 77 1.9 WSW 11 15 6 8 1029.4 1029.4 0.0
28/11:30am 11.5 9.4 8.2 80 1.6 WSW 9 11 5 6 1029.7 1029.7 0.0
28/11:00am 11.8 10.5 7.5 75 2.1 N 4 7 2 4 1029.9 1029.9 0.0
28/10:30am 11.8 10.5 7.5 75 2.1 WNW 4 7 2 4 1030.1 1030.1 0.0
28/10:03am 11.6 10.7 7.7 77 1.9 NW 2 7 1 4 1030.2 1030.2 0.0
28/10:00am 11.6 10.6 7.5 76 2.0 NNW 2 7 1 4 1030.2 1030.2 0.0
28/09:39am 11.6 9.9 7.5 76 2.0 N 6 9 3 5 1030.2 1030.2 0.0
28/09:30am 11.7 9.9 7.8 77 1.9 N 7 9 4 5 1030.2 1030.2 0.0
28/09:00am 11.0 9.5 8.4 84 1.3 NNW 6 9 3 5 1030.2 1030.2 0.0
28/08:30am 10.4 9.9 8.0 85 1.2 CALM 0 0 0 0 1030.0 1030.0 0.0
28/08:00am 9.1 8.5 7.5 90 0.8 CALM 0 0 0 0 1029.7 1029.7 0.0
28/07:42am 8.8 7.1 7.4 91 0.7 NNE 6 9 3 5 1029.8 1029.8 0.0
28/07:30am 8.5 6.7 7.1 91 0.6 ENE 6 9 3 5 1029.5 1029.5 0.0
28/07:24am 8.6 6.7 6.9 89 0.8 E 6 7 3 4 1029.5 1029.5 0.0
28/07:00am 8.1 6.5 6.2 88 0.9 E 4 6 2 3 1029.3 1029.3 0.0
28/06:30am 7.6 6.7 6.1 90 0.7 CALM 0 6 0 3 1029.1 1029.1 0.0
28/06:00am 7.6 6.6 5.6 87 0.9 CALM 0 0 0 0 1028.9 1028.9 0.0
28/05:30am 7.5 6.5 5.6 88 0.8 CALM 0 0 0 0 1028.7 1028.7 0.0
28/05:00am 7.3 5.9 5.6 89 0.8 N 2 6 1 3 1028.7 1028.7 0.0
28/04:30am 7.2 5.0 5.5 89 0.8 NNE 6 7 3 4 1028.5 1028.5 0.0
28/04:00am 7.3 4.9 5.4 88 0.8 ENE 7 9 4 5 1028.3 1028.3 0.0
28/03:30am 6.8 4.4 5.3 90 0.7 ENE 7 9 4 5 1028.2 1028.2 0.0
28/03:00am 6.3 3.8 4.8 90 0.6 NE 7 9 4 5 1028.3 1028.3 0.0
28/02:30am 5.7 3.3 4.3 91 0.6 NNE 6 7 3 4 1028.4 1028.4 0.0
28/02:00am 5.6 2.6 4.2 91 0.6 ENE 9 11 5 6 1028.4 1028.4 0.0
28/01:30am 4.8 1.7 3.5 91 0.5 NE 9 11 5 6 1028.4 1028.4 0.0
28/01:00am 5.1 2.1 3.9 92 0.5 NE 9 11 5 6 1028.5 1028.5 0.0
28/12:30am 4.2 1.0 2.9 91 0.5 NNE 9 9 5 5 1028.3 1028.3 0.0
28/12:00am 5.3 2.7 4.1 92 0.5 E 7 9 4 5 1028.4 1028.4 0.0
 
Date/Time
CST
Temp
°C
App
Temp
°C
Dew
Point
Rel
Hum
%
Delta-T
°C
Wind Press
QNH
hPa
Press
MSL
hPa
Rain
since 9 am
mm
Dir
 
Spd
km/h
Gust
km/h
Spd
kts
Gust
kts
27/11:30pm 4.6 2.4 3.1 90 0.6 ESE 4 7 2 4 1028.3 1028.3 0.0
27/11:00pm 4.7 3.3 3.5 92 0.5 CALM 0 0 0 0 1028.4 1028.4 0.0
27/10:30pm 5.0 3.2 3.2 88 0.7 SE 2 6 1 3 1028.5 1028.5 0.0
27/10:00pm 7.2 4.7 4.7 84 1.1 SSE 7 7 4 4 1028.6 1028.6 0.0

Other Formats:

Comma delimited format used in spreadsheet applications
http://www.bom.gov.au/fwo/IDS60801/IDS60801.95676.axf

JavaScript Object Notation format (JSON) in row-major order
http://www.bom.gov.au/fwo/IDS60801/IDS60801.95676.json